Time;durP1;ratioP1;P1;durP2;ratioP2;P2;SDS_P1;SDS_P2;PMS_P1;PMS_P2;Temp;Humidity;BMP_temperature;BMP_pressure;BME280_temperature;BME280_humidity;BME280_pressure;Samples;Min_cycle;Max_cycle;Signal;HPM_P1;HPM_P2
2023/01/11 00:01:50;;;;;;;8.73;5.37;;;8.40;99.90;;;;;;5070781;28;20194;-61
2023/01/11 00:04:19;;;;;;;9.07;5.40;;;8.50;99.90;;;;;;5068348;28;20192;-61
2023/01/11 00:06:46;;;;;;;7.40;5.27;;;8.40;99.90;;;;;;5069841;28;20210;-61
2023/01/11 00:09:14;;;;;;;13.00;7.20;;;8.40;99.90;;;;;;5067600;28;20265;-61
2023/01/11 00:11:41;;;;;;;13.73;6.83;;;8.40;99.90;;;;;;5070551;28;20208;-61
2023/01/11 00:14:09;;;;;;;14.20;7.67;;;8.40;99.90;;;;;;5069183;28;20267;-61
2023/01/11 00:16:36;;;;;;;16.83;7.73;;;8.40;99.90;;;;;;5071288;28;20197;-61
2023/01/11 00:19:03;;;;;;;16.43;8.37;;;8.40;99.90;;;;;;5071401;28;20196;-61
2023/01/11 00:21:32;;;;;;;18.80;9.13;;;8.30;99.90;;;;;;5069946;28;20205;-60
2023/01/11 00:23:59;;;;;;;17.33;9.03;;;8.20;99.90;;;;;;5069618;28;20185;-61
2023/01/11 00:26:26;;;;;;;15.50;7.50;;;8.20;99.90;;;;;;5068939;28;20319;-60
2023/01/11 00:28:53;;;;;;;14.63;7.30;;;8.10;99.90;;;;;;5069503;28;20193;-60
2023/01/11 00:31:20;;;;;;;13.80;6.87;;;8.10;99.90;;;;;;5070473;28;20197;-60
2023/01/11 00:33:48;;;;;;;17.03;8.07;;;8.10;99.90;;;;;;5069000;28;20226;-60
2023/01/11 00:36:15;;;;;;;14.57;7.03;;;8.00;99.90;;;;;;5068246;28;20211;-61
2023/01/11 00:38:45;;;;;;;16.37;7.83;;;8.00;99.90;;;;;;5069884;28;20194;-60
2023/01/11 00:49:28;;;;;;;17.43;9.37;;;7.70;99.90;;;;;;5069909;28;20675;-60
2023/01/11 00:51:55;;;;;;;14.23;7.13;;;7.70;99.90;;;;;;5070385;28;20204;-60
2023/01/11 00:54:23;;;;;;;15.83;8.27;;;7.70;99.90;;;;;;5071806;28;20196;-60
2023/01/11 00:56:50;;;;;;;16.50;9.03;;;7.60;99.90;;;;;;5070095;28;20660;-60
2023/01/11 00:59:18;;;;;;;16.53;7.83;;;7.60;99.90;;;;;;5070927;28;20656;-60
2023/01/11 01:01:45;;;;;;;14.67;7.63;;;7.60;99.90;;;;;;5069508;28;20405;-60
2023/01/11 01:04:12;;;;;;;17.00;7.87;;;7.60;99.90;;;;;;5070602;28;20660;-60
2023/01/11 01:06:39;;;;;;;22.33;9.87;;;7.60;99.90;;;;;;5068735;28;20681;-59
2023/01/11 01:09:06;;;;;;;19.20;9.30;;;7.60;99.90;;;;;;5071515;28;20189;-59
2023/01/11 01:11:35;;;;;;;22.70;10.43;;;7.60;99.90;;;;;;5069365;28;20683;-59
2023/01/11 01:16:47;;;;;;;17.37;8.77;;;7.50;99.90;;;;;;5069785;28;20195;-60
2023/01/11 01:19:14;;;;;;;18.67;9.40;;;7.40;99.90;;;;;;5068118;28;20243;-60
2023/01/11 01:21:41;;;;;;;21.63;10.73;;;7.40;99.90;;;;;;5069764;28;20193;-60
2023/01/11 01:24:09;;;;;;;20.47;9.90;;;7.40;99.90;;;;;;5069560;28;20285;-60
2023/01/11 01:26:37;;;;;;;26.07;12.57;;;7.40;99.90;;;;;;5069870;28;20245;-60
2023/01/11 01:29:04;;;;;;;23.50;12.13;;;7.30;99.90;;;;;;5073596;28;20189;-60
2023/01/11 01:31:31;;;;;;;21.80;11.30;;;7.20;99.90;;;;;;5072032;28;20189;-60
2023/01/11 01:33:58;;;;;;;23.53;11.37;;;7.20;99.90;;;;;;5068424;28;20189;-60
2023/01/11 01:36:26;;;;;;;19.83;10.60;;;7.20;99.90;;;;;;5069830;28;20186;-60
2023/01/11 01:38:53;;;;;;;19.53;9.30;;;7.20;99.90;;;;;;5068504;28;20714;-60
2023/01/11 01:41:20;;;;;;;15.23;8.43;;;7.20;99.90;;;;;;5070972;28;20193;-60
2023/01/11 01:43:52;;;;;;;13.27;6.73;;;7.20;99.90;;;;;;5067660;28;20201;-61
2023/01/11 01:46:21;;;;;;;15.47;8.87;;;7.30;99.90;;;;;;5070897;28;20201;-60
2023/01/11 01:48:51;;;;;;;18.33;9.30;;;7.30;99.90;;;;;;5069266;28;20204;-60
2023/01/11 01:51:21;;;;;;;16.53;8.60;;;7.40;99.90;;;;;;5072332;28;20239;-61
2023/01/11 01:53:51;;;;;;;19.47;9.00;;;7.30;99.90;;;;;;5074088;28;20592;-60
2023/01/11 01:56:25;;;;;;;19.50;9.73;;;7.40;99.90;;;;;;5072712;28;20197;-60
2023/01/11 01:58:57;;;;;;;25.03;11.87;;;7.40;99.90;;;;;;5072396;28;20193;-61
2023/01/11 02:04:20;;;;;;;23.10;11.23;;;7.40;99.90;;;;;;5068575;28;20181;-60
2023/01/11 02:06:47;;;;;;;18.50;9.23;;;7.40;99.90;;;;;;5074252;28;20201;-61
2023/01/11 02:09:23;;;;;;;15.83;8.40;;;7.40;99.90;;;;;;5074405;28;20193;-61
2023/01/11 02:11:51;;;;;;;22.73;10.87;;;7.40;99.90;;;;;;5070410;28;20213;-61
2023/01/11 02:14:21;;;;;;;27.90;11.87;;;7.50;99.90;;;;;;5072520;28;20744;-60
2023/01/11 02:16:48;;;;;;;26.70;11.47;;;7.50;99.90;;;;;;5072331;28;20201;-61
2023/01/11 02:19:25;;;;;;;33.90;13.97;;;7.50;99.90;;;;;;5071983;28;20219;-60
2023/01/11 02:22:08;;;;;;;44.03;16.47;;;7.50;99.90;;;;;;5072133;28;20204;-61
2023/01/11 02:25:02;;;;;;;38.47;14.33;;;7.50;99.90;;;;;;5072131;28;20197;-61
2023/01/11 02:27:46;;;;;;;60.43;20.27;;;7.60;99.90;;;;;;5070870;28;20232;-61
2023/01/11 02:30:21;;;;;;;56.33;19.97;;;7.60;99.90;;;;;;5072395;28;20216;-61
2023/01/11 02:32:56;;;;;;;54.10;19.87;;;7.50;99.90;;;;;;5071960;28;20199;-60
2023/01/11 02:35:35;;;;;;;43.80;16.67;;;7.50;99.90;;;;;;5072921;28;20694;-60
2023/01/11 02:38:10;;;;;;;43.63;17.07;;;7.50;99.90;;;;;;5073622;28;20268;-61
2023/01/11 02:40:47;;;;;;;36.70;15.37;;;7.40;99.90;;;;;;5073795;28;20199;-61
2023/01/11 02:46:11;;;;;;;32.33;14.70;;;7.40;99.90;;;;;;5071642;28;20205;-61
2023/01/11 02:48:46;;;;;;;40.73;16.70;;;7.30;99.90;;;;;;5072038;28;20259;-60
2023/01/11 02:51:17;;;;;;;35.80;15.50;;;7.30;99.90;;;;;;5072419;28;21125;-60
2023/01/11 02:53:49;;;;;;;34.60;15.47;;;7.20;99.90;;;;;;5072999;28;20189;-60
2023/01/11 02:56:19;;;;;;;36.73;16.10;;;7.20;99.90;;;;;;5071890;28;20223;-60
2023/01/11 02:58:51;;;;;;;30.93;14.83;;;7.10;99.90;;;;;;5072702;28;20196;-61
2023/01/11 03:01:21;;;;;;;30.23;14.83;;;7.10;99.90;;;;;;5073314;28;20193;-60
2023/01/11 03:03:48;;;;;;;28.70;13.50;;;7.00;99.90;;;;;;5071325;28;20235;-60
2023/01/11 03:06:20;;;;;;;32.73;14.83;;;7.00;99.90;;;;;;5069284;28;20684;-61
2023/01/11 03:08:58;;;;;;;30.23;14.50;;;7.00;99.90;;;;;;5070194;28;20193;-61
2023/01/11 03:14:36;;;;;;;26.87;12.97;;;7.10;99.90;;;;;;5070457;28;20204;-60
2023/01/11 03:17:11;;;;;;;28.47;13.50;;;6.90;99.90;;;;;;5071804;28;20993;-60
2023/01/11 03:19:44;;;;;;;27.73;13.40;;;6.90;99.90;;;;;;5070304;28;20738;-60
2023/01/11 03:22:21;;;;;;;36.73;14.00;;;6.90;99.90;;;;;;5076114;28;20624;-61
2023/01/11 03:24:57;;;;;;;26.33;12.10;;;6.90;99.90;;;;;;5072646;28;20279;-60
2023/01/11 03:27:34;;;;;;;26.73;12.87;;;6.90;99.90;;;;;;5070388;28;20208;-61
2023/01/11 03:30:10;;;;;;;29.50;13.27;;;6.90;99.90;;;;;;5071609;28;20185;-61
2023/01/11 03:32:44;;;;;;;25.37;12.27;;;6.90;99.90;;;;;;5069115;28;20185;-61
2023/01/11 03:35:20;;;;;;;22.17;10.90;;;6.90;99.90;;;;;;5069876;28;20196;-59
2023/01/11 03:37:55;;;;;;;29.33;13.30;;;7.00;99.90;;;;;;5070591;28;20253;-61
2023/01/11 03:40:28;;;;;;;29.63;14.07;;;7.00;99.90;;;;;;5069679;28;20197;-61
2023/01/11 03:45:52;;;;;;;32.33;14.13;;;6.90;99.90;;;;;;5062797;28;20197;-60
2023/01/11 03:48:24;;;;;;;30.50;14.20;;;6.90;99.90;;;;;;5070230;28;20223;-60
2023/01/11 03:50:54;;;;;;;29.80;14.57;;;6.90;99.90;;;;;;5071369;28;20197;-61
2023/01/11 03:53:23;;;;;;;27.50;13.10;;;6.60;99.90;;;;;;5071440;28;20595;-62
2023/01/11 03:55:56;;;;;;;19.80;10.33;;;6.90;99.90;;;;;;5069829;28;20200;-60
2023/01/11 03:58:24;;;;;;;17.23;9.37;;;6.80;99.90;;;;;;5070908;28;20190;-60
2023/01/11 04:00:53;;;;;;;23.40;10.90;;;6.80;99.90;;;;;;5069238;28;20556;-61
2023/01/11 04:03:20;;;;;;;20.77;10.83;;;6.90;99.90;;;;;;5070013;28;20293;-61
2023/01/11 04:05:52;;;;;;;25.23;12.47;;;6.80;99.90;;;;;;5069503;28;20208;-61
2023/01/11 04:08:19;;;;;;;25.47;12.30;;;6.90;99.90;;;;;;5071619;28;20193;-60
2023/01/11 04:10:46;;;;;;;21.10;11.60;;;6.80;99.90;;;;;;5070318;28;20198;-60
2023/01/11 04:13:13;;;;;;;22.30;11.03;;;6.80;99.90;;;;;;5069749;28;20270;-59
2023/01/11 04:15:40;;;;;;;23.27;12.00;;;6.70;99.90;;;;;;5070895;28;20693;-60
2023/01/11 04:18:11;;;;;;;19.87;10.93;;;6.70;99.90;;;;;;5070592;28;20196;-60
2023/01/11 04:20:39;;;;;;;27.80;11.93;;;6.70;99.90;;;;;;5068209;28;20181;-61
2023/01/11 04:23:08;;;;;;;25.73;11.87;;;6.70;99.90;;;;;;5070471;28;20207;-60
2023/01/11 04:25:35;;;;;;;21.47;11.20;;;6.70;99.90;;;;;;5074157;28;20591;-60
2023/01/11 04:28:02;;;;;;;19.90;10.70;;;6.70;99.90;;;;;;5070977;28;20287;-60
2023/01/11 04:30:29;;;;;;;23.53;12.40;;;6.70;99.90;;;;;;5069782;28;20536;-60
2023/01/11 04:32:58;;;;;;;25.10;12.67;;;6.60;99.90;;;;;;5070900;28;20200;-60
2023/01/11 04:35:27;;;;;;;26.83;12.70;;;6.90;99.90;;;;;;5068722;28;20205;-60
2023/01/11 04:37:54;;;;;;;25.23;12.20;;;6.50;99.90;;;;;;5071002;28;20181;-59
2023/01/11 04:40:22;;;;;;;27.13;13.20;;;6.50;99.90;;;;;;5069555;28;20656;-61
2023/01/11 04:42:48;;;;;;;27.17;13.20;;;6.40;99.90;;;;;;5068654;28;20203;-60
2023/01/11 04:45:15;;;;;;;29.37;13.63;;;6.40;99.90;;;;;;5070259;28;20262;-61
2023/01/11 04:47:42;;;;;;;28.43;12.37;;;6.30;99.90;;;;;;5069208;28;20212;-61
2023/01/11 04:50:11;;;;;;;23.53;11.50;;;6.30;99.90;;;;;;5070994;28;20665;-60
2023/01/11 04:52:40;;;;;;;23.27;12.90;;;4.90;99.90;;;;;;5071174;28;20277;-60
2023/01/11 04:55:08;;;;;;;20.27;10.17;;;6.30;99.90;;;;;;5070930;28;20196;-60
2023/01/11 04:57:35;;;;;;;23.00;11.30;;;6.30;99.90;;;;;;5069774;28;20205;-60
2023/01/11 05:00:06;;;;;;;26.53;12.33;;;6.40;99.90;;;;;;5071651;28;20199;-60
2023/01/11 05:02:33;;;;;;;24.00;11.77;;;6.40;99.90;;;;;;5069069;28;20192;-60
2023/01/11 05:05:02;;;;;;;21.40;10.40;;;6.40;99.90;;;;;;5070245;28;20647;-60
2023/01/11 05:07:29;;;;;;;29.73;13.47;;;4.30;99.90;;;;;;5067748;28;20247;-61
2023/01/11 05:09:58;;;;;;;32.80;15.70;;;6.40;99.90;;;;;;5071365;28;20193;-60
2023/01/11 05:12:25;;;;;;;33.37;15.73;;;6.40;99.90;;;;;;5070057;28;20189;-61
2023/01/11 05:14:52;;;;;;;38.57;17.70;;;6.40;99.90;;;;;;5070435;28;20201;-61
2023/01/11 05:17:19;;;;;;;36.37;16.00;;;6.30;99.90;;;;;;5068943;28;20188;-60
2023/01/11 05:19:46;;;;;;;37.13;17.07;;;6.30;99.90;;;;;;5067554;28;20211;-61
2023/01/11 05:22:14;;;;;;;37.50;16.17;;;6.20;99.90;;;;;;5069265;28;20203;-61
2023/01/11 05:24:43;;;;;;;34.27;15.63;;;6.20;99.90;;;;;;5070333;28;20559;-61
2023/01/11 05:27:12;;;;;;;36.60;16.77;;;6.20;99.90;;;;;;5072990;28;20203;-60
2023/01/11 05:29:39;;;;;;;36.33;15.67;;;6.10;99.90;;;;;;5074124;28;20191;-61
2023/01/11 05:32:06;;;;;;;34.00;14.80;;;6.10;99.90;;;;;;5076464;28;20205;-60
2023/01/11 05:34:33;;;;;;;28.77;13.43;;;6.10;99.90;;;;;;5075074;28;20206;-61
2023/01/11 05:37:00;;;;;;;30.23;13.77;;;6.10;99.90;;;;;;5072872;28;20199;-61
2023/01/11 05:39:27;;;;;;;24.17;12.10;;;6.20;99.90;;;;;;5074764;28;20200;-60
2023/01/11 05:41:55;;;;;;;24.10;11.87;;;6.20;99.90;;;;;;5073190;28;20199;-60
2023/01/11 05:47:08;;;;;;;26.63;13.20;;;6.30;99.90;;;;;;5070264;28;20218;-61
2023/01/11 05:49:35;;;;;;;30.90;14.13;;;6.30;99.90;;;;;;5071143;28;20706;-62
2023/01/11 05:52:02;;;;;;;24.07;12.97;;;6.30;99.90;;;;;;5073704;28;20197;-60
2023/01/11 05:54:29;;;;;;;24.33;11.67;;;6.30;99.90;;;;;;5072669;28;20205;-61
2023/01/11 05:56:57;;;;;;;32.07;14.80;;;6.30;99.90;;;;;;5072856;28;20210;-60
2023/01/11 05:59:25;;;;;;;36.67;16.00;;;6.30;99.90;;;;;;5072679;28;20747;-60
2023/01/11 06:01:52;;;;;;;29.40;14.87;;;6.30;99.90;;;;;;5074088;28;20193;-60
2023/01/11 06:04:19;;;;;;;35.13;16.73;;;6.30;99.90;;;;;;5074049;28;20218;-60
2023/01/11 06:06:49;;;;;;;31.80;15.47;;;6.20;99.90;;;;;;5072639;28;20215;-61
2023/01/11 06:09:17;;;;;;;29.73;14.10;;;6.10;99.90;;;;;;5070733;28;20192;-61
2023/01/11 06:11:44;;;;;;;33.53;15.13;;;6.10;99.90;;;;;;5071714;28;20191;-60
2023/01/11 06:14:11;;;;;;;27.60;14.37;;;6.00;99.90;;;;;;5072965;28;20210;-61
2023/01/11 06:16:39;;;;;;;33.43;14.67;;;5.90;99.90;;;;;;5071273;28;20592;-61
2023/01/11 06:19:06;;;;;;;32.57;13.70;;;5.90;99.90;;;;;;5070062;28;20206;-59
2023/01/11 06:21:34;;;;;;;30.43;12.83;;;5.90;99.90;;;;;;5072994;28;20199;-60
2023/01/11 06:24:04;;;;;;;23.87;12.47;;;5.90;99.90;;;;;;5072016;28;20196;-61
2023/01/11 06:26:31;;;;;;;31.30;13.07;;;5.90;99.90;;;;;;5071708;28;20231;-61
2023/01/11 06:28:58;;;;;;;27.93;12.70;;;5.90;99.90;;;;;;5072145;28;20204;-60
2023/01/11 06:31:25;;;;;;;28.00;13.23;;;5.90;99.90;;;;;;5072329;28;20644;-60
2023/01/11 06:33:54;;;;;;;24.07;12.40;;;6.00;99.90;;;;;;5072904;28;20193;-61
2023/01/11 06:36:21;;;;;;;26.90;12.97;;;6.00;99.90;;;;;;5071388;28;20185;-60
2023/01/11 06:38:48;;;;;;;36.87;15.03;;;6.00;99.90;;;;;;5073201;28;20201;-60
2023/01/11 06:41:15;;;;;;;54.43;17.63;;;5.90;99.90;;;;;;5071610;28;20670;-61
2023/01/11 06:43:42;;;;;;;53.67;17.57;;;5.90;99.90;;;;;;5068853;28;20258;-60
2023/01/11 06:46:11;;;;;;;41.87;15.07;;;5.90;99.90;;;;;;5072984;28;20551;-61
2023/01/11 06:48:38;;;;;;;39.30;13.73;;;5.90;99.90;;;;;;5071604;28;20282;-60
2023/01/11 06:51:09;;;;;;;24.53;12.30;;;5.90;99.90;;;;;;5072787;28;20202;-61
2023/01/11 06:53:37;;;;;;;30.10;12.60;;;5.80;99.90;;;;;;5072978;28;20193;-61
2023/01/11 06:56:04;;;;;;;25.87;11.40;;;5.80;99.90;;;;;;5070354;28;20749;-61
2023/01/11 06:58:31;;;;;;;33.80;13.33;;;5.80;99.90;;;;;;5070508;28;20198;-61
2023/01/11 07:00:59;;;;;;;30.13;11.97;;;5.80;99.90;;;;;;5070256;28;20203;-61
2023/01/11 07:03:27;;;;;;;23.47;10.10;;;5.80;99.90;;;;;;5069588;28;20192;-60
2023/01/11 07:05:56;;;;;;;24.10;9.77;;;5.80;99.90;;;;;;5057575;28;20307;-61
2023/01/11 07:08:25;;;;;;;24.40;9.17;;;5.80;99.90;;;;;;5063464;28;20560;-61
2023/01/11 07:10:53;;;;;;;18.03;9.40;;;5.70;99.90;;;;;;5068951;28;20200;-61
2023/01/11 07:13:20;;;;;;;19.80;9.87;;;5.70;99.90;;;;;;5065534;28;20199;-60
2023/01/11 07:15:50;;;;;;;20.43;9.50;;;5.70;99.90;;;;;;5069066;28;20235;-61
2023/01/11 07:18:18;;;;;;;18.40;9.07;;;5.70;99.90;;;;;;5068647;28;20219;-61
2023/01/11 07:20:45;;;;;;;18.93;9.37;;;5.70;99.90;;;;;;5068275;28;20278;-61
2023/01/11 07:23:13;;;;;;;15.80;8.73;;;5.70;99.90;;;;;;5070874;28;20205;-60
2023/01/11 07:25:41;;;;;;;15.73;8.67;;;5.70;99.90;;;;;;5068191;28;20230;-60
2023/01/11 07:28:09;;;;;;;21.60;9.23;;;5.80;99.90;;;;;;5068642;28;20740;-60
2023/01/11 07:30:38;;;;;;;20.50;9.80;;;5.80;99.90;;;;;;5067227;28;20228;-61
2023/01/11 07:33:06;;;;;;;20.80;9.83;;;5.80;99.90;;;;;;5067818;28;20206;-61
2023/01/11 07:35:33;;;;;;;19.10;8.80;;;5.80;99.90;;;;;;5068298;28;20627;-60
2023/01/11 07:38:01;;;;;;;20.90;9.33;;;5.80;99.90;;;;;;5067980;28;20198;-59
2023/01/11 07:40:28;;;;;;;16.77;8.33;;;5.80;99.90;;;;;;5068861;28;20202;-61
2023/01/11 07:43:13;;;;;;;22.27;9.70;;;5.90;99.90;;;;;;5068333;28;20202;-62
2023/01/11 07:45:41;;;;;;;20.87;10.20;;;5.90;99.90;;;;;;5068240;28;20191;-60
2023/01/11 07:48:09;;;;;;;23.00;10.00;;;5.90;99.90;;;;;;5066452;28;20199;-60
2023/01/11 07:50:39;;;;;;;22.30;9.87;;;6.00;99.90;;;;;;5067006;28;20620;-60
2023/01/11 07:53:06;;;;;;;21.50;10.27;;;6.00;99.90;;;;;;5070159;28;20196;-60
2023/01/11 07:55:34;;;;;;;23.30;10.00;;;6.00;99.90;;;;;;5069476;28;20192;-61
2023/01/11 07:58:03;;;;;;;27.00;11.40;;;6.10;99.90;;;;;;5063579;28;20260;-61
2023/01/11 08:00:30;;;;;;;23.67;10.60;;;6.20;99.90;;;;;;5067749;28;20213;-62
2023/01/11 08:03:01;;;;;;;20.93;10.77;;;6.20;99.90;;;;;;5065367;28;20207;-60
2023/01/11 08:05:29;;;;;;;20.27;10.17;;;6.20;99.90;;;;;;5064148;28;20207;-60
2023/01/11 08:07:56;;;;;;;21.50;10.60;;;6.30;99.90;;;;;;5066489;28;20215;-59
2023/01/11 08:10:23;;;;;;;21.57;9.77;;;6.40;99.90;;;;;;5066120;28;20201;-60
2023/01/11 08:15:37;;;;;;;18.73;9.83;;;6.40;99.90;;;;;;5066477;28;20237;-61
2023/01/11 08:18:06;;;;;;;21.83;10.43;;;6.40;99.90;;;;;;5067281;28;20298;-61
2023/01/11 08:20:34;;;;;;;21.03;9.97;;;6.50;99.90;;;;;;5067391;28;20192;-61
2023/01/11 08:23:03;;;;;;;18.90;9.30;;;6.50;99.90;;;;;;5065175;28;20260;-61
2023/01/11 08:25:30;;;;;;;22.97;11.20;;;6.50;99.90;;;;;;5069827;28;20729;-60
2023/01/11 08:28:00;;;;;;;23.20;11.10;;;6.60;99.90;;;;;;5068678;28;20203;-62
2023/01/11 08:30:27;;;;;;;23.57;10.77;;;6.50;99.90;;;;;;5067403;28;20258;-61
2023/01/11 08:32:57;;;;;;;26.40;11.20;;;6.60;99.90;;;;;;5066002;28;20258;-60
2023/01/11 08:35:25;;;;;;;18.93;9.73;;;6.60;99.90;;;;;;5060813;28;20234;-61
2023/01/11 08:37:52;;;;;;;22.93;10.23;;;6.60;99.90;;;;;;5067636;28;20511;-61
2023/01/11 08:40:19;;;;;;;19.40;9.40;;;6.60;99.90;;;;;;5068653;28;20207;-61
2023/01/11 08:42:46;;;;;;;23.20;11.20;;;6.60;99.90;;;;;;5063823;28;20198;-61
2023/01/11 08:45:16;;;;;;;25.73;11.43;;;6.60;99.90;;;;;;5066305;28;20265;-61
2023/01/11 08:47:43;;;;;;;30.93;12.40;;;6.60;99.90;;;;;;5065984;28;20207;-61
2023/01/11 08:50:14;;;;;;;33.33;12.37;;;6.60;99.90;;;;;;5061890;28;20198;-60
2023/01/11 08:52:43;;;;;;;28.17;11.37;;;6.60;99.90;;;;;;5066766;28;20195;-61
2023/01/11 08:55:11;;;;;;;27.03;11.87;;;6.50;99.90;;;;;;5066450;28;20531;-61
2023/01/11 08:57:38;;;;;;;26.37;12.37;;;6.50;99.90;;;;;;5068208;28;20188;-61
2023/01/11 09:00:07;;;;;;;23.43;10.37;;;6.50;99.90;;;;;;5068590;28;20282;-61
2023/01/11 09:02:34;;;;;;;19.80;9.57;;;6.50;99.90;;;;;;5072467;28;20853;-61
2023/01/11 09:05:01;;;;;;;17.57;9.50;;;6.50;99.90;;;;;;5069129;28;20756;-62
2023/01/11 09:07:30;;;;;;;23.20;9.70;;;8.10;99.90;;;;;;5069363;28;20186;-61
2023/01/11 09:10:00;;;;;;;21.23;9.40;;;6.50;99.90;;;;;;5071776;28;20199;-61
2023/01/11 09:12:27;;;;;;;18.90;8.77;;;7.00;99.90;;;;;;5071183;28;20648;-61
2023/01/11 09:14:54;;;;;;;19.37;9.47;;;6.50;99.90;;;;;;5068237;28;20200;-60
2023/01/11 09:17:21;;;;;;;22.37;9.90;;;6.50;99.90;;;;;;5070654;28;20192;-61
2023/01/11 09:19:49;;;;;;;17.50;8.50;;;6.60;99.90;;;;;;5069077;28;20208;-61
2023/01/11 09:22:16;;;;;;;19.03;8.10;;;6.60;99.90;;;;;;5071164;28;20202;-61
2023/01/11 09:24:44;;;;;;;13.27;7.20;;;6.60;99.90;;;;;;5071116;28;20246;-60
2023/01/11 09:27:12;;;;;;;13.50;7.53;;;6.70;99.90;;;;;;5068351;28;20333;-61
2023/01/11 09:29:39;;;;;;;16.37;8.00;;;6.70;99.90;;;;;;5072047;28;20261;-61
2023/01/11 09:32:06;;;;;;;15.93;7.57;;;6.70;99.90;;;;;;5067697;28;20354;-62
2023/01/11 09:34:34;;;;;;;19.03;7.13;;;6.80;99.90;;;;;;5070521;28;20200;-61
2023/01/11 09:37:02;;;;;;;16.10;7.70;;;6.80;99.90;;;;;;5069778;28;20199;-61
2023/01/11 09:39:30;;;;;;;16.13;7.30;;;6.90;99.90;;;;;;5071079;28;20196;-61
2023/01/11 09:42:15;;;;;;;12.73;6.33;;;6.90;99.90;;;;;;5070869;28;20193;-61
2023/01/11 09:44:49;;;;;;;12.17;6.53;;;7.00;99.90;;;;;;5070807;28;20290;-60
2023/01/11 09:47:25;;;;;;;17.47;7.80;;;7.00;99.90;;;;;;5069296;28;20203;-61
2023/01/11 09:49:56;;;;;;;15.83;6.83;;;7.00;99.90;;;;;;5068845;28;20207;-61
2023/01/11 09:52:27;;;;;;;14.50;7.17;;;7.10;99.90;;;;;;5069810;28;20196;-61
2023/01/11 09:54:56;;;;;;;16.10;7.90;;;7.10;99.90;;;;;;5068440;28;20349;-60
2023/01/11 09:57:39;;;;;;;14.23;7.67;;;7.10;99.90;;;;;;5069196;28;20238;-61
2023/01/11 10:00:18;;;;;;;17.83;7.77;;;7.10;99.90;;;;;;5070728;28;20200;-61
2023/01/11 10:03:03;;;;;;;17.23;7.73;;;7.10;99.90;;;;;;5068622;28;20192;-60
2023/01/11 10:05:45;;;;;;;14.60;7.10;;;7.20;99.90;;;;;;5069710;28;20272;-61
2023/01/11 10:08:30;;;;;;;14.63;7.47;;;7.20;99.90;;;;;;5068481;28;20223;-61
2023/01/11 10:11:07;;;;;;;13.13;6.53;;;7.30;99.90;;;;;;5067801;28;20201;-61
2023/01/11 10:13:47;;;;;;;12.87;6.60;;;7.30;99.90;;;;;;5071518;28;20199;-61
2023/01/11 10:16:27;;;;;;;12.00;6.20;;;7.30;99.90;;;;;;5067893;28;20188;-61
2023/01/11 10:19:11;;;;;;;12.20;6.47;;;7.40;99.90;;;;;;5069095;28;20595;-61
2023/01/11 10:21:45;;;;;;;12.43;6.50;;;7.50;99.90;;;;;;5068392;28;20246;-60
2023/01/11 10:24:19;;;;;;;11.37;6.03;;;7.50;99.90;;;;;;5070000;28;20655;-60
2023/01/11 10:26:50;;;;;;;12.57;6.67;;;7.50;99.90;;;;;;5067322;28;20242;-59
2023/01/11 10:29:38;;;;;;;17.43;6.30;;;7.50;99.90;;;;;;5068037;28;20719;-60
2023/01/11 10:32:33;;;;;;;15.53;6.77;;;7.50;99.90;;;;;;5069093;28;20541;-62
2023/01/11 10:35:28;;;;;;;12.07;6.47;;;7.50;99.90;;;;;;5068182;28;20282;-62
2023/01/11 10:38:09;;;;;;;17.27;6.30;;;7.50;99.90;;;;;;5067994;28;20197;-61
2023/01/11 10:43:28;;;;;;;9.17;5.30;;;7.50;99.90;;;;;;5067148;28;20612;-62
2023/01/11 10:46:01;;;;;;;13.17;6.07;;;7.60;99.90;;;;;;5067257;28;20572;-61
2023/01/11 10:48:33;;;;;;;13.87;6.03;;;7.60;99.90;;;;;;5066494;28;20237;-60
2023/01/11 10:51:11;;;;;;;9.63;5.60;;;7.60;99.90;;;;;;5067477;28;20221;-62
2023/01/11 10:53:50;;;;;;;9.57;5.60;;;7.60;99.90;;;;;;5067798;28;20532;-61
2023/01/11 10:56:25;;;;;;;12.00;5.60;;;7.60;99.90;;;;;;5067451;28;20196;-61
2023/01/11 10:59:14;;;;;;;10.33;5.20;;;7.70;99.90;;;;;;5067448;28;20646;-62
2023/01/11 11:01:54;;;;;;;10.93;5.17;;;7.70;99.90;;;;;;5066898;28;20688;-62
2023/01/11 11:04:43;;;;;;;11.13;5.60;;;7.70;99.90;;;;;;5066611;28;20274;-60
2023/01/11 11:07:17;;;;;;;14.33;5.57;;;7.70;99.90;;;;;;5067166;28;20592;-62
2023/01/11 11:09:55;;;;;;;11.00;5.77;;;7.70;99.90;;;;;;5069392;28;20194;-61
2023/01/11 11:12:26;;;;;;;13.47;6.43;;;7.70;99.90;;;;;;5067498;28;20196;-61
2023/01/11 11:15:02;;;;;;;10.33;5.03;;;7.70;99.90;;;;;;5065577;28;20205;-61
2023/01/11 11:17:34;;;;;;;9.43;5.37;;;7.70;99.90;;;;;;5063070;28;20208;-61
2023/01/11 11:20:12;;;;;;;10.87;5.53;;;7.70;99.90;;;;;;5068161;28;20213;-62
2023/01/11 11:22:39;;;;;;;14.97;5.83;;;7.70;99.90;;;;;;5067374;28;20197;-61
2023/01/11 11:25:15;;;;;;;14.20;5.57;;;7.70;99.90;;;;;;5068795;28;20228;-61
2023/01/11 11:27:44;;;;;;;10.57;5.30;;;7.70;99.90;;;;;;5067397;28;20664;-61
2023/01/11 11:30:14;;;;;;;11.30;5.37;;;7.70;99.90;;;;;;5067390;28;20223;-61
2023/01/11 11:32:52;;;;;;;11.80;5.50;;;7.70;99.90;;;;;;5068847;28;20198;-61
2023/01/11 11:35:34;;;;;;;9.23;4.97;;;7.70;99.90;;;;;;5069117;28;20652;-62
2023/01/11 11:38:01;;;;;;;11.07;5.53;;;7.80;99.90;;;;;;5070201;28;20266;-62
2023/01/11 11:40:32;;;;;;;10.97;5.13;;;7.70;99.90;;;;;;5068362;28;20197;-61
2023/01/11 11:43:21;;;;;;;14.97;6.33;;;7.80;99.90;;;;;;5064916;28;20197;-62
2023/01/11 11:45:54;;;;;;;10.40;5.50;;;7.80;99.90;;;;;;5067807;28;20197;-62
2023/01/11 11:48:23;;;;;;;9.97;4.80;;;7.80;99.90;;;;;;5067374;28;20205;-61
2023/01/11 11:50:52;;;;;;;12.30;5.97;;;7.90;99.90;;;;;;5068011;28;20664;-61
2023/01/11 11:53:33;;;;;;;12.23;6.00;;;7.90;99.90;;;;;;5066405;28;20204;-62
2023/01/11 11:56:14;;;;;;;10.47;5.40;;;7.90;99.90;;;;;;5066776;28;20197;-60
2023/01/11 11:58:47;;;;;;;10.63;5.43;;;7.80;99.90;;;;;;5067900;28;20188;-61
2023/01/11 12:01:27;;;;;;;10.93;5.53;;;7.80;99.90;;;;;;5068712;28;20189;-61
2023/01/11 12:04:02;;;;;;;7.97;4.70;;;7.80;99.90;;;;;;5069709;28;20189;-60
2023/01/11 12:06:30;;;;;;;11.17;5.27;;;7.80;99.90;;;;;;5068618;28;20195;-61
2023/01/11 12:09:01;;;;;;;11.33;5.67;;;7.80;99.90;;;;;;5068816;28;20236;-62
2023/01/11 12:11:33;;;;;;;10.20;5.23;;;7.80;99.90;;;;;;5067205;28;20200;-62
2023/01/11 12:14:04;;;;;;;8.27;4.67;;;7.80;99.90;;;;;;5068365;28;20543;-62
2023/01/11 12:16:43;;;;;;;11.60;5.27;;;7.80;99.90;;;;;;5065672;28;20676;-61
2023/01/11 12:19:29;;;;;;;8.77;5.10;;;7.80;99.90;;;;;;5066937;28;20716;-62
2023/01/11 12:22:11;;;;;;;14.37;5.57;;;7.80;99.90;;;;;;5066560;28;20687;-62
2023/01/11 12:24:38;;;;;;;9.33;5.17;;;7.90;99.90;;;;;;5067706;28;20193;-61
2023/01/11 12:27:14;;;;;;;10.73;5.73;;;7.90;99.90;;;;;;5065615;28;20197;-61
2023/01/11 12:30:07;;;;;;;10.77;5.07;;;7.90;99.90;;;;;;5067439;28;20205;-62
2023/01/11 12:33:06;;;;;;;10.03;5.70;;;7.80;99.90;;;;;;5067255;28;20280;-61
2023/01/11 12:35:47;;;;;;;12.13;5.97;;;7.90;99.90;;;;;;5068638;28;20181;-63
2023/01/11 12:38:47;;;;;;;15.63;6.53;;;7.90;99.90;;;;;;5066365;28;20754;-61
2023/01/11 12:41:46;;;;;;;9.33;4.97;;;7.80;99.90;;;;;;5063271;28;20201;-62
2023/01/11 12:44:36;;;;;;;8.47;5.17;;;7.80;99.90;;;;;;5061966;28;20236;-60
2023/01/11 12:47:44;;;;;;;9.77;5.90;;;7.80;99.90;;;;;;5062630;28;20211;-62
2023/01/11 12:50:20;;;;;;;8.53;5.20;;;7.80;99.90;;;;;;5043150;28;20212;-61
2023/01/11 12:53:06;;;;;;;11.37;5.03;;;7.80;99.90;;;;;;5065037;28;20220;-62
2023/01/11 12:55:44;;;;;;;11.13;5.50;;;7.80;99.90;;;;;;5067564;28;20283;-61
2023/01/11 12:58:19;;;;;;;12.73;5.30;;;7.90;99.90;;;;;;5066057;28;20272;-62
2023/01/11 13:01:20;;;;;;;10.53;5.53;;;7.90;99.90;;;;;;5068126;28;20700;-61
2023/01/11 13:04:28;;;;;;;14.97;6.60;;;7.90;99.90;;;;;;5063766;28;20193;-62
2023/01/11 13:07:07;;;;;;;11.90;6.03;;;7.90;99.90;;;;;;5067023;28;20193;-61
2023/01/11 13:09:50;;;;;;;10.87;5.83;;;7.90;99.90;;;;;;5068302;28;20225;-61
2023/01/11 13:12:21;;;;;;;13.00;5.10;;;7.90;99.90;;;;;;5064526;28;20291;-62
2023/01/11 13:15:05;;;;;;;11.70;5.73;;;7.80;99.90;;;;;;5066694;28;20197;-61
2023/01/11 13:17:38;;;;;;;11.40;5.60;;;7.80;99.90;;;;;;5065938;28;20189;-63
2023/01/11 13:20:21;;;;;;;11.63;5.63;;;7.80;99.90;;;;;;5066005;28;20650;-61
2023/01/11 13:22:52;;;;;;;10.20;5.37;;;7.80;99.90;;;;;;5062590;28;20208;-61
2023/01/11 13:25:25;;;;;;;9.80;5.70;;;7.80;99.90;;;;;;5067022;28;20262;-62
2023/01/11 13:27:57;;;;;;;9.33;5.43;;;7.80;99.90;;;;;;5063185;28;20676;-61
2023/01/11 13:30:28;;;;;;;10.83;5.40;;;7.80;99.90;;;;;;5063453;28;20569;-61
2023/01/11 13:32:59;;;;;;;20.57;10.40;;;7.80;99.90;;;;;;5066793;28;20185;-61
2023/01/11 13:35:36;;;;;;;10.53;6.33;;;7.80;99.90;;;;;;5064597;28;20548;-62
2023/01/11 13:38:13;;;;;;;13.23;6.23;;;7.80;99.90;;;;;;5066395;28;20287;-61